sensor_id;sensor_type;location;lat;lon;timestamp;P1;durP1;ratioP1;P2;durP2;ratioP2
24897;SDS011;12957;49.434;8.684;2023-05-01T00:00:01;1.83;;;1.73;;
24897;SDS011;12957;49.434;8.684;2023-05-01T00:02:30;2.88;;;1.98;;
24897;SDS011;12957;49.434;8.684;2023-05-01T00:04:55;2.75;;;1.67;;
24897;SDS011;12957;49.434;8.684;2023-05-01T00:07:21;1.95;;;1.77;;
24897;SDS011;12957;49.434;8.684;2023-05-01T00:09:51;2.08;;;1.83;;
24897;SDS011;12957;49.434;8.684;2023-05-01T00:12:17;2.10;;;1.80;;
24897;SDS011;12957;49.434;8.684;2023-05-01T00:14:42;1.73;;;1.60;;
24897;SDS011;12957;49.434;8.684;2023-05-01T00:17:08;4.70;;;1.63;;
24897;SDS011;12957;49.434;8.684;2023-05-01T00:19:33;1.90;;;1.80;;
24897;SDS011;12957;49.434;8.684;2023-05-01T00:22:02;2.75;;;1.90;;
24897;SDS011;12957;49.434;8.684;2023-05-01T00:24:27;2.00;;;1.90;;
24897;SDS011;12957;49.434;8.684;2023-05-01T00:26:53;2.17;;;1.60;;
24897;SDS011;12957;49.434;8.684;2023-05-01T00:29:18;2.65;;;1.70;;
24897;SDS011;12957;49.434;8.684;2023-05-01T00:31:44;3.97;;;1.90;;
24897;SDS011;12957;49.434;8.684;2023-05-01T00:34:12;1.90;;;1.80;;
24897;SDS011;12957;49.434;8.684;2023-05-01T00:36:38;2.30;;;2.05;;
24897;SDS011;12957;49.434;8.684;2023-05-01T00:39:03;1.95;;;1.80;;
24897;SDS011;12957;49.434;8.684;2023-05-01T00:41:31;2.65;;;1.90;;
24897;SDS011;12957;49.434;8.684;2023-05-01T00:43:57;2.00;;;1.85;;
24897;SDS011;12957;49.434;8.684;2023-05-01T00:46:23;1.75;;;1.65;;
24897;SDS011;12957;49.434;8.684;2023-05-01T00:48:48;2.58;;;1.88;;
24897;SDS011;12957;49.434;8.684;2023-05-01T00:51:14;4.03;;;1.90;;
24897;SDS011;12957;49.434;8.684;2023-05-01T00:53:39;2.03;;;1.70;;
24897;SDS011;12957;49.434;8.684;2023-05-01T00:56:06;4.47;;;2.15;;
24897;SDS011;12957;49.434;8.684;2023-05-01T00:58:32;1.95;;;1.85;;
24897;SDS011;12957;49.434;8.684;2023-05-01T01:00:58;2.28;;;1.95;;
24897;SDS011;12957;49.434;8.684;2023-05-01T01:03:23;2.67;;;1.95;;
24897;SDS011;12957;49.434;8.684;2023-05-01T01:05:54;1.80;;;1.70;;
24897;SDS011;12957;49.434;8.684;2023-05-01T01:14:07;2.40;;;2.10;;
24897;SDS011;12957;49.434;8.684;2023-05-01T01:22:12;3.22;;;1.73;;
24897;SDS011;12957;49.434;8.684;2023-05-01T01:30:42;2.60;;;2.03;;
24897;SDS011;12957;49.434;8.684;2023-05-01T01:36:14;2.00;;;1.90;;
24897;SDS011;12957;49.434;8.684;2023-05-01T01:38:44;2.08;;;1.98;;
24897;SDS011;12957;49.434;8.684;2023-05-01T01:41:12;1.83;;;1.73;;
24897;SDS011;12957;49.434;8.684;2023-05-01T01:43:48;3.47;;;2.00;;
24897;SDS011;12957;49.434;8.684;2023-05-01T01:46:18;1.90;;;1.60;;
24897;SDS011;12957;49.434;8.684;2023-05-01T01:48:45;1.95;;;1.77;;
24897;SDS011;12957;49.434;8.684;2023-05-01T01:51:13;2.60;;;1.95;;
24897;SDS011;12957;49.434;8.684;2023-05-01T01:53:41;1.88;;;1.75;;
24897;SDS011;12957;49.434;8.684;2023-05-01T01:56:10;1.92;;;1.83;;
24897;SDS011;12957;49.434;8.684;2023-05-01T01:58:37;2.88;;;1.80;;
24897;SDS011;12957;49.434;8.684;2023-05-01T02:01:04;2.17;;;1.70;;
24897;SDS011;12957;49.434;8.684;2023-05-01T02:03:30;1.70;;;1.60;;
24897;SDS011;12957;49.434;8.684;2023-05-01T02:05:57;5.20;;;1.80;;
24897;SDS011;12957;49.434;8.684;2023-05-01T02:08:23;4.65;;;1.80;;
24897;SDS011;12957;49.434;8.684;2023-05-01T02:10:49;2.85;;;1.88;;
24897;SDS011;12957;49.434;8.684;2023-05-01T02:13:15;1.90;;;1.80;;
24897;SDS011;12957;49.434;8.684;2023-05-01T02:15:41;2.25;;;1.77;;
24897;SDS011;12957;49.434;8.684;2023-05-01T02:18:09;3.33;;;2.00;;
24897;SDS011;12957;49.434;8.684;2023-05-01T02:20:35;1.85;;;1.75;;
24897;SDS011;12957;49.434;8.684;2023-05-01T02:23:01;2.13;;;1.92;;
24897;SDS011;12957;49.434;8.684;2023-05-01T02:25:28;2.13;;;1.92;;
24897;SDS011;12957;49.434;8.684;2023-05-01T02:27:56;1.85;;;1.65;;
24897;SDS011;12957;49.434;8.684;2023-05-01T02:30:24;2.95;;;1.80;;
24897;SDS011;12957;49.434;8.684;2023-05-01T02:32:50;4.45;;;1.80;;
24897;SDS011;12957;49.434;8.684;2023-05-01T02:35:16;3.08;;;2.00;;
24897;SDS011;12957;49.434;8.684;2023-05-01T02:37:42;1.88;;;1.77;;
24897;SDS011;12957;49.434;8.684;2023-05-01T02:40:08;3.50;;;2.00;;
24897;SDS011;12957;49.434;8.684;2023-05-01T02:42:35;5.18;;;1.95;;
24897;SDS011;12957;49.434;8.684;2023-05-01T02:45:05;2.50;;;2.10;;
24897;SDS011;12957;49.434;8.684;2023-05-01T02:47:36;2.55;;;2.10;;
24897;SDS011;12957;49.434;8.684;2023-05-01T02:50:02;2.08;;;1.88;;
24897;SDS011;12957;49.434;8.684;2023-05-01T02:52:28;2.30;;;2.10;;
24897;SDS011;12957;49.434;8.684;2023-05-01T02:54:54;3.88;;;2.40;;
24897;SDS011;12957;49.434;8.684;2023-05-01T02:57:21;6.18;;;2.20;;
24897;SDS011;12957;49.434;8.684;2023-05-01T02:59:46;2.00;;;1.90;;
24897;SDS011;12957;49.434;8.684;2023-05-01T03:02:12;2.55;;;1.85;;
24897;SDS011;12957;49.434;8.684;2023-05-01T03:04:38;4.82;;;2.22;;
24897;SDS011;12957;49.434;8.684;2023-05-01T03:07:03;2.58;;;2.13;;
24897;SDS011;12957;49.434;8.684;2023-05-01T03:09:29;4.05;;;2.50;;
24897;SDS011;12957;49.434;8.684;2023-05-01T03:11:55;3.63;;;2.65;;
24897;SDS011;12957;49.434;8.684;2023-05-01T03:14:21;3.60;;;2.30;;
24897;SDS011;12957;49.434;8.684;2023-05-01T03:16:46;2.35;;;2.15;;
24897;SDS011;12957;49.434;8.684;2023-05-01T03:19:12;2.63;;;2.40;;
24897;SDS011;12957;49.434;8.684;2023-05-01T03:21:38;6.82;;;2.28;;
24897;SDS011;12957;49.434;8.684;2023-05-01T03:24:03;2.50;;;2.30;;
24897;SDS011;12957;49.434;8.684;2023-05-01T03:26:29;3.85;;;2.05;;
24897;SDS011;12957;49.434;8.684;2023-05-01T03:28:54;3.10;;;2.20;;
24897;SDS011;12957;49.434;8.684;2023-05-01T03:31:20;4.13;;;2.22;;
24897;SDS011;12957;49.434;8.684;2023-05-01T03:33:45;3.60;;;2.35;;
24897;SDS011;12957;49.434;8.684;2023-05-01T03:36:12;2.47;;;2.28;;
24897;SDS011;12957;49.434;8.684;2023-05-01T03:38:37;4.43;;;2.40;;
24897;SDS011;12957;49.434;8.684;2023-05-01T03:41:03;2.47;;;2.30;;
24897;SDS011;12957;49.434;8.684;2023-05-01T03:43:29;2.90;;;2.58;;
24897;SDS011;12957;49.434;8.684;2023-05-01T03:45:56;2.83;;;2.30;;
24897;SDS011;12957;49.434;8.684;2023-05-01T03:48:21;3.10;;;2.22;;
24897;SDS011;12957;49.434;8.684;2023-05-01T03:50:47;4.53;;;2.50;;
24897;SDS011;12957;49.434;8.684;2023-05-01T03:53:12;3.08;;;2.42;;
24897;SDS011;12957;49.434;8.684;2023-05-01T03:55:38;3.05;;;2.53;;
24897;SDS011;12957;49.434;8.684;2023-05-01T03:58:04;2.60;;;2.40;;
24897;SDS011;12957;49.434;8.684;2023-05-01T04:00:31;3.63;;;2.40;;
24897;SDS011;12957;49.434;8.684;2023-05-01T04:02:56;3.45;;;2.53;;
24897;SDS011;12957;49.434;8.684;2023-05-01T04:05:22;6.72;;;2.75;;
24897;SDS011;12957;49.434;8.684;2023-05-01T04:07:48;5.88;;;2.60;;
24897;SDS011;12957;49.434;8.684;2023-05-01T04:10:13;2.53;;;2.40;;
24897;SDS011;12957;49.434;8.684;2023-05-01T04:12:39;6.50;;;2.90;;
24897;SDS011;12957;49.434;8.684;2023-05-01T04:15:05;6.15;;;2.58;;
24897;SDS011;12957;49.434;8.684;2023-05-01T04:17:31;6.25;;;2.47;;
24897;SDS011;12957;49.434;8.684;2023-05-01T04:19:56;2.60;;;2.40;;
24897;SDS011;12957;49.434;8.684;2023-05-01T04:22:22;5.07;;;2.25;;
24897;SDS011;12957;49.434;8.684;2023-05-01T04:24:48;2.63;;;2.42;;
24897;SDS011;12957;49.434;8.684;2023-05-01T04:27:13;4.65;;;2.60;;
24897;SDS011;12957;49.434;8.684;2023-05-01T04:29:39;3.83;;;2.70;;
24897;SDS011;12957;49.434;8.684;2023-05-01T04:32:06;2.83;;;2.53;;
24897;SDS011;12957;49.434;8.684;2023-05-01T04:34:31;2.85;;;2.65;;
24897;SDS011;12957;49.434;8.684;2023-05-01T04:36:57;5.00;;;2.67;;
24897;SDS011;12957;49.434;8.684;2023-05-01T04:39:22;6.75;;;2.30;;
24897;SDS011;12957;49.434;8.684;2023-05-01T04:41:48;3.40;;;2.33;;
24897;SDS011;12957;49.434;8.684;2023-05-01T04:44:13;6.05;;;2.55;;
24897;SDS011;12957;49.434;8.684;2023-05-01T04:46:39;2.30;;;2.20;;
24897;SDS011;12957;49.434;8.684;2023-05-01T04:49:05;3.30;;;2.80;;
24897;SDS011;12957;49.434;8.684;2023-05-01T04:51:30;5.18;;;2.40;;
24897;SDS011;12957;49.434;8.684;2023-05-01T04:53:56;4.60;;;2.63;;
24897;SDS011;12957;49.434;8.684;2023-05-01T04:56:22;5.32;;;2.55;;
24897;SDS011;12957;49.434;8.684;2023-05-01T04:58:47;3.95;;;2.40;;
24897;SDS011;12957;49.434;8.684;2023-05-01T05:01:12;3.33;;;2.50;;
24897;SDS011;12957;49.434;8.684;2023-05-01T05:03:38;3.65;;;2.80;;
24897;SDS011;12957;49.434;8.684;2023-05-01T05:06:04;3.50;;;2.83;;
24897;SDS011;12957;49.434;8.684;2023-05-01T05:08:30;4.25;;;3.28;;
24897;SDS011;12957;49.434;8.684;2023-05-01T05:10:56;4.88;;;2.72;;
24897;SDS011;12957;49.434;8.684;2023-05-01T05:13:23;3.08;;;2.60;;
24897;SDS011;12957;49.434;8.684;2023-05-01T05:15:48;4.25;;;2.60;;
24897;SDS011;12957;49.434;8.684;2023-05-01T05:18:13;4.25;;;2.53;;
24897;SDS011;12957;49.434;8.684;2023-05-01T05:20:39;3.20;;;2.63;;
24897;SDS011;12957;49.434;8.684;2023-05-01T05:23:04;4.28;;;2.53;;
24897;SDS011;12957;49.434;8.684;2023-05-01T05:25:30;3.17;;;2.63;;
24897;SDS011;12957;49.434;8.684;2023-05-01T05:27:56;3.05;;;2.78;;
24897;SDS011;12957;49.434;8.684;2023-05-01T05:30:21;3.20;;;2.60;;
24897;SDS011;12957;49.434;8.684;2023-05-01T05:32:47;3.58;;;2.85;;
24897;SDS011;12957;49.434;8.684;2023-05-01T05:35:12;3.45;;;2.50;;
24897;SDS011;12957;49.434;8.684;2023-05-01T05:37:38;3.42;;;2.83;;
24897;SDS011;12957;49.434;8.684;2023-05-01T05:40:03;2.78;;;2.55;;
24897;SDS011;12957;49.434;8.684;2023-05-01T05:42:29;3.10;;;2.80;;
24897;SDS011;12957;49.434;8.684;2023-05-01T05:44:55;5.00;;;2.47;;
24897;SDS011;12957;49.434;8.684;2023-05-01T05:47:20;3.28;;;2.50;;
24897;SDS011;12957;49.434;8.684;2023-05-01T05:49:46;5.18;;;2.35;;
24897;SDS011;12957;49.434;8.684;2023-05-01T05:52:12;3.13;;;2.80;;
24897;SDS011;12957;49.434;8.684;2023-05-01T05:54:37;4.90;;;2.78;;
24897;SDS011;12957;49.434;8.684;2023-05-01T05:57:03;3.10;;;2.75;;
24897;SDS011;12957;49.434;8.684;2023-05-01T05:59:28;4.15;;;2.67;;
24897;SDS011;12957;49.434;8.684;2023-05-01T06:01:54;3.00;;;2.80;;
24897;SDS011;12957;49.434;8.684;2023-05-01T06:04:19;2.83;;;2.60;;
24897;SDS011;12957;49.434;8.684;2023-05-01T06:06:45;2.90;;;2.60;;
24897;SDS011;12957;49.434;8.684;2023-05-01T06:09:10;2.92;;;2.72;;
24897;SDS011;12957;49.434;8.684;2023-05-01T06:11:36;3.10;;;2.78;;
24897;SDS011;12957;49.434;8.684;2023-05-01T06:14:02;4.13;;;2.75;;
24897;SDS011;12957;49.434;8.684;2023-05-01T06:16:27;4.10;;;2.85;;
24897;SDS011;12957;49.434;8.684;2023-05-01T06:18:53;5.90;;;3.00;;
24897;SDS011;12957;49.434;8.684;2023-05-01T06:21:18;3.97;;;2.78;;
24897;SDS011;12957;49.434;8.684;2023-05-01T06:23:44;4.28;;;3.08;;
24897;SDS011;12957;49.434;8.684;2023-05-01T06:26:09;3.33;;;2.80;;
24897;SDS011;12957;49.434;8.684;2023-05-01T06:28:35;2.85;;;2.65;;
24897;SDS011;12957;49.434;8.684;2023-05-01T06:31:00;4.32;;;3.00;;
24897;SDS011;12957;49.434;8.684;2023-05-01T06:33:26;3.22;;;2.75;;
24897;SDS011;12957;49.434;8.684;2023-05-01T06:35:51;3.15;;;2.85;;
24897;SDS011;12957;49.434;8.684;2023-05-01T06:38:18;4.90;;;3.08;;
24897;SDS011;12957;49.434;8.684;2023-05-01T06:40:44;5.32;;;3.03;;
24897;SDS011;12957;49.434;8.684;2023-05-01T06:43:11;3.53;;;2.70;;
24897;SDS011;12957;49.434;8.684;2023-05-01T06:45:37;2.92;;;2.72;;
24897;SDS011;12957;49.434;8.684;2023-05-01T06:48:06;3.92;;;2.97;;
24897;SDS011;12957;49.434;8.684;2023-05-01T06:50:32;4.97;;;3.08;;
24897;SDS011;12957;49.434;8.684;2023-05-01T06:52:57;4.80;;;2.67;;
24897;SDS011;12957;49.434;8.684;2023-05-01T06:55:25;3.25;;;2.78;;
24897;SDS011;12957;49.434;8.684;2023-05-01T06:57:51;3.00;;;2.80;;
24897;SDS011;12957;49.434;8.684;2023-05-01T07:00:16;5.00;;;2.95;;
24897;SDS011;12957;49.434;8.684;2023-05-01T07:02:43;3.30;;;3.00;;
24897;SDS011;12957;49.434;8.684;2023-05-01T07:05:09;3.90;;;2.80;;
24897;SDS011;12957;49.434;8.684;2023-05-01T07:07:35;3.72;;;3.03;;
24897;SDS011;12957;49.434;8.684;2023-05-01T07:10:01;3.30;;;3.00;;
24897;SDS011;12957;49.434;8.684;2023-05-01T07:12:27;3.35;;;3.13;;
24897;SDS011;12957;49.434;8.684;2023-05-01T07:14:53;2.85;;;2.63;;
24897;SDS011;12957;49.434;8.684;2023-05-01T07:17:20;3.65;;;3.00;;
24897;SDS011;12957;49.434;8.684;2023-05-01T07:19:46;3.60;;;2.85;;
24897;SDS011;12957;49.434;8.684;2023-05-01T07:22:11;3.13;;;2.60;;
24897;SDS011;12957;49.434;8.684;2023-05-01T07:24:37;4.10;;;2.70;;
24897;SDS011;12957;49.434;8.684;2023-05-01T07:27:02;3.25;;;2.95;;
24897;SDS011;12957;49.434;8.684;2023-05-01T07:29:28;3.22;;;3.00;;
24897;SDS011;12957;49.434;8.684;2023-05-01T07:31:53;7.65;;;3.30;;
24897;SDS011;12957;49.434;8.684;2023-05-01T07:34:19;6.38;;;3.05;;
24897;SDS011;12957;49.434;8.684;2023-05-01T07:36:44;4.85;;;2.90;;
24897;SDS011;12957;49.434;8.684;2023-05-01T07:39:10;7.15;;;3.15;;
24897;SDS011;12957;49.434;8.684;2023-05-01T07:41:36;4.80;;;2.85;;
24897;SDS011;12957;49.434;8.684;2023-05-01T07:44:01;5.20;;;3.40;;
24897;SDS011;12957;49.434;8.684;2023-05-01T07:46:27;7.15;;;3.08;;
24897;SDS011;12957;49.434;8.684;2023-05-01T07:48:53;3.90;;;3.10;;
24897;SDS011;12957;49.434;8.684;2023-05-01T07:51:19;3.28;;;2.90;;
24897;SDS011;12957;49.434;8.684;2023-05-01T07:53:44;5.15;;;3.50;;
24897;SDS011;12957;49.434;8.684;2023-05-01T07:56:12;5.00;;;3.30;;
24897;SDS011;12957;49.434;8.684;2023-05-01T07:58:37;5.15;;;3.30;;
24897;SDS011;12957;49.434;8.684;2023-05-01T08:01:05;3.30;;;3.00;;
24897;SDS011;12957;49.434;8.684;2023-05-01T08:03:34;4.82;;;3.22;;
24897;SDS011;12957;49.434;8.684;2023-05-01T08:05:59;3.58;;;3.25;;
24897;SDS011;12957;49.434;8.684;2023-05-01T08:08:25;4.45;;;3.45;;
24897;SDS011;12957;49.434;8.684;2023-05-01T08:10:51;6.07;;;3.25;;
24897;SDS011;12957;49.434;8.684;2023-05-01T08:13:18;3.72;;;3.42;;
24897;SDS011;12957;49.434;8.684;2023-05-01T08:15:45;6.35;;;3.60;;
24897;SDS011;12957;49.434;8.684;2023-05-01T08:18:11;5.20;;;3.53;;
24897;SDS011;12957;49.434;8.684;2023-05-01T08:20:39;3.92;;;3.38;;
24897;SDS011;12957;49.434;8.684;2023-05-01T08:23:07;5.95;;;3.58;;
24897;SDS011;12957;49.434;8.684;2023-05-01T08:25:32;5.05;;;3.15;;
24897;SDS011;12957;49.434;8.684;2023-05-01T08:27:58;6.53;;;3.67;;
24897;SDS011;12957;49.434;8.684;2023-05-01T08:30:24;6.90;;;3.28;;
24897;SDS011;12957;49.434;8.684;2023-05-01T08:32:50;8.18;;;3.50;;
24897;SDS011;12957;49.434;8.684;2023-05-01T08:35:15;4.65;;;3.63;;
24897;SDS011;12957;49.434;8.684;2023-05-01T08:37:41;4.07;;;3.63;;
24897;SDS011;12957;49.434;8.684;2023-05-01T08:40:06;3.88;;;3.35;;
24897;SDS011;12957;49.434;8.684;2023-05-01T08:42:36;8.75;;;4.07;;
24897;SDS011;12957;49.434;8.684;2023-05-01T08:45:02;4.28;;;3.30;;
24897;SDS011;12957;49.434;8.684;2023-05-01T08:47:31;7.75;;;4.00;;
24897;SDS011;12957;49.434;8.684;2023-05-01T08:50:00;3.88;;;3.35;;
24897;SDS011;12957;49.434;8.684;2023-05-01T08:52:27;6.53;;;4.13;;
24897;SDS011;12957;49.434;8.684;2023-05-01T08:54:53;5.22;;;3.70;;
24897;SDS011;12957;49.434;8.684;2023-05-01T08:57:20;4.20;;;3.80;;
24897;SDS011;12957;49.434;8.684;2023-05-01T08:59:46;4.00;;;3.70;;
24897;SDS011;12957;49.434;8.684;2023-05-01T09:02:12;5.63;;;3.10;;
24897;SDS011;12957;49.434;8.684;2023-05-01T09:04:40;3.88;;;3.15;;
24897;SDS011;12957;49.434;8.684;2023-05-01T09:07:06;3.80;;;3.33;;
24897;SDS011;12957;49.434;8.684;2023-05-01T09:09:32;4.05;;;3.40;;
24897;SDS011;12957;49.434;8.684;2023-05-01T09:11:59;4.78;;;4.07;;
24897;SDS011;12957;49.434;8.684;2023-05-01T09:14:45;10.60;;;4.15;;
24897;SDS011;12957;49.434;8.684;2023-05-01T09:17:11;6.13;;;3.78;;
24897;SDS011;12957;49.434;8.684;2023-05-01T09:19:36;4.35;;;3.80;;
24897;SDS011;12957;49.434;8.684;2023-05-01T09:22:02;3.58;;;3.20;;
24897;SDS011;12957;49.434;8.684;2023-05-01T09:24:27;3.90;;;3.50;;
24897;SDS011;12957;49.434;8.684;2023-05-01T09:26:53;6.97;;;3.92;;
24897;SDS011;12957;49.434;8.684;2023-05-01T09:32:12;3.88;;;3.50;;
24897;SDS011;12957;49.434;8.684;2023-05-01T09:34:39;5.63;;;3.60;;
24897;SDS011;12957;49.434;8.684;2023-05-01T09:37:04;3.30;;;3.10;;
24897;SDS011;12957;49.434;8.684;2023-05-01T09:39:30;3.58;;;3.28;;
24897;SDS011;12957;49.434;8.684;2023-05-01T09:41:56;3.60;;;3.30;;
24897;SDS011;12957;49.434;8.684;2023-05-01T09:44:21;6.20;;;3.60;;
24897;SDS011;12957;49.434;8.684;2023-05-01T09:46:47;7.85;;;3.40;;
24897;SDS011;12957;49.434;8.684;2023-05-01T09:49:14;4.72;;;3.67;;
24897;SDS011;12957;49.434;8.684;2023-05-01T09:51:40;3.85;;;3.45;;
24897;SDS011;12957;49.434;8.684;2023-05-01T09:54:17;3.58;;;3.28;;
24897;SDS011;12957;49.434;8.684;2023-05-01T09:56:47;5.43;;;3.22;;
24897;SDS011;12957;49.434;8.684;2023-05-01T09:59:17;5.28;;;3.42;;
24897;SDS011;12957;49.434;8.684;2023-05-01T10:01:44;3.60;;;3.20;;
24897;SDS011;12957;49.434;8.684;2023-05-01T10:04:11;10.02;;;3.35;;
24897;SDS011;12957;49.434;8.684;2023-05-01T10:06:37;3.42;;;3.13;;
24897;SDS011;12957;49.434;8.684;2023-05-01T10:09:03;4.28;;;3.00;;
24897;SDS011;12957;49.434;8.684;2023-05-01T10:11:39;3.42;;;2.95;;
24897;SDS011;12957;49.434;8.684;2023-05-01T10:14:12;5.18;;;3.40;;
24897;SDS011;12957;49.434;8.684;2023-05-01T10:16:37;3.45;;;3.13;;
24897;SDS011;12957;49.434;8.684;2023-05-01T10:19:04;6.20;;;3.00;;
24897;SDS011;12957;49.434;8.684;2023-05-01T10:21:30;3.97;;;3.35;;
24897;SDS011;12957;49.434;8.684;2023-05-01T10:23:59;3.35;;;3.05;;
24897;SDS011;12957;49.434;8.684;2023-05-01T10:26:25;5.75;;;3.00;;
24897;SDS011;12957;49.434;8.684;2023-05-01T10:28:51;5.22;;;3.10;;
24897;SDS011;12957;49.434;8.684;2023-05-01T10:31:16;3.97;;;3.00;;
24897;SDS011;12957;49.434;8.684;2023-05-01T10:33:42;3.17;;;2.88;;
24897;SDS011;12957;49.434;8.684;2023-05-01T10:36:10;3.85;;;3.25;;
24897;SDS011;12957;49.434;8.684;2023-05-01T10:38:39;5.75;;;3.10;;
24897;SDS011;12957;49.434;8.684;2023-05-01T10:41:09;3.22;;;2.92;;
24897;SDS011;12957;49.434;8.684;2023-05-01T10:43:35;4.38;;;3.10;;
24897;SDS011;12957;49.434;8.684;2023-05-01T10:53:37;3.50;;;2.90;;
24897;SDS011;12957;49.434;8.684;2023-05-01T10:56:03;3.40;;;3.20;;
24897;SDS011;12957;49.434;8.684;2023-05-01T11:03:55;4.03;;;2.97;;
24897;SDS011;12957;49.434;8.684;2023-05-01T11:06:21;4.22;;;3.05;;
24897;SDS011;12957;49.434;8.684;2023-05-01T11:08:47;3.30;;;3.00;;
24897;SDS011;12957;49.434;8.684;2023-05-01T11:13:55;4.13;;;3.33;;
24897;SDS011;12957;49.434;8.684;2023-05-01T11:19:42;3.42;;;3.13;;
24897;SDS011;12957;49.434;8.684;2023-05-01T11:21:47;3.67;;;3.38;;
24897;SDS011;12957;49.434;8.684;2023-05-01T11:24:13;4.28;;;3.25;;
24897;SDS011;12957;49.434;8.684;2023-05-01T11:26:41;5.85;;;3.55;;
24897;SDS011;12957;49.434;8.684;2023-05-01T11:29:07;4.70;;;3.80;;
24897;SDS011;12957;49.434;8.684;2023-05-01T11:31:34;6.03;;;3.60;;
24897;SDS011;12957;49.434;8.684;2023-05-01T11:34:00;6.20;;;3.20;;
24897;SDS011;12957;49.434;8.684;2023-05-01T11:36:26;4.78;;;3.53;;
24897;SDS011;12957;49.434;8.684;2023-05-01T11:38:57;4.00;;;3.58;;
24897;SDS011;12957;49.434;8.684;2023-05-01T11:41:24;4.65;;;3.42;;
24897;SDS011;12957;49.434;8.684;2023-05-01T11:43:50;3.75;;;3.25;;
24897;SDS011;12957;49.434;8.684;2023-05-01T11:48:56;5.20;;;3.80;;
24897;SDS011;12957;49.434;8.684;2023-05-01T11:51:23;4.97;;;4.03;;
24897;SDS011;12957;49.434;8.684;2023-05-01T11:53:59;4.03;;;3.63;;
24897;SDS011;12957;49.434;8.684;2023-05-01T11:56:34;3.88;;;3.47;;
24897;SDS011;12957;49.434;8.684;2023-05-01T11:59:16;4.13;;;3.72;;
24897;SDS011;12957;49.434;8.684;2023-05-01T12:01:42;7.05;;;4.38;;
24897;SDS011;12957;49.434;8.684;2023-05-01T12:04:09;4.45;;;3.78;;
24897;SDS011;12957;49.434;8.684;2023-05-01T12:09:05;5.05;;;3.38;;
24897;SDS011;12957;49.434;8.684;2023-05-01T12:11:31;6.03;;;3.75;;
24897;SDS011;12957;49.434;8.684;2023-05-01T12:13:57;5.72;;;3.95;;
24897;SDS011;12957;49.434;8.684;2023-05-01T12:16:23;5.20;;;3.78;;
24897;SDS011;12957;49.434;8.684;2023-05-01T12:18:49;6.40;;;3.65;;
24897;SDS011;12957;49.434;8.684;2023-05-01T12:21:14;5.82;;;3.67;;
24897;SDS011;12957;49.434;8.684;2023-05-01T12:23:43;5.53;;;3.60;;
24897;SDS011;12957;49.434;8.684;2023-05-01T12:26:16;4.32;;;3.83;;
24897;SDS011;12957;49.434;8.684;2023-05-01T12:28:55;4.07;;;3.58;;
24897;SDS011;12957;49.434;8.684;2023-05-01T12:31:22;8.25;;;3.50;;
24897;SDS011;12957;49.434;8.684;2023-05-01T12:33:55;3.65;;;3.35;;
24897;SDS011;12957;49.434;8.684;2023-05-01T12:36:21;4.13;;;3.70;;
24897;SDS011;12957;49.434;8.684;2023-05-01T12:39:12;5.68;;;3.70;;
24897;SDS011;12957;49.434;8.684;2023-05-01T12:41:43;3.78;;;3.40;;
24897;SDS011;12957;49.434;8.684;2023-05-01T12:44:23;3.55;;;3.28;;
24897;SDS011;12957;49.434;8.684;2023-05-01T12:47:05;5.00;;;3.67;;
24897;SDS011;12957;49.434;8.684;2023-05-01T12:49:32;3.30;;;3.00;;
24897;SDS011;12957;49.434;8.684;2023-05-01T12:52:01;4.20;;;3.30;;
24897;SDS011;12957;49.434;8.684;2023-05-01T12:54:28;6.57;;;3.80;;
24897;SDS011;12957;49.434;8.684;2023-05-01T12:57:04;4.40;;;3.63;;
24897;SDS011;12957;49.434;8.684;2023-05-01T12:59:33;9.07;;;3.65;;
24897;SDS011;12957;49.434;8.684;2023-05-01T13:02:01;4.22;;;3.53;;
24897;SDS011;12957;49.434;8.684;2023-05-01T13:04:27;4.38;;;3.70;;
24897;SDS011;12957;49.434;8.684;2023-05-01T13:06:53;5.22;;;3.38;;
24897;SDS011;12957;49.434;8.684;2023-05-01T13:09:22;6.38;;;3.75;;
24897;SDS011;12957;49.434;8.684;2023-05-01T13:12:01;3.17;;;2.88;;
24897;SDS011;12957;49.434;8.684;2023-05-01T13:14:34;4.63;;;3.38;;
24897;SDS011;12957;49.434;8.684;2023-05-01T13:17:01;3.42;;;3.13;;
24897;SDS011;12957;49.434;8.684;2023-05-01T13:19:27;3.65;;;3.10;;
24897;SDS011;12957;49.434;8.684;2023-05-01T13:21:53;5.22;;;3.63;;
24897;SDS011;12957;49.434;8.684;2023-05-01T13:24:19;4.78;;;3.08;;
24897;SDS011;12957;49.434;8.684;2023-05-01T13:26:46;4.70;;;3.10;;
24897;SDS011;12957;49.434;8.684;2023-05-01T13:29:15;5.07;;;3.70;;
24897;SDS011;12957;49.434;8.684;2023-05-01T13:31:44;3.78;;;3.30;;
24897;SDS011;12957;49.434;8.684;2023-05-01T13:34:09;3.90;;;3.17;;
24897;SDS011;12957;49.434;8.684;2023-05-01T13:36:35;3.75;;;3.45;;
24897;SDS011;12957;49.434;8.684;2023-05-01T13:39:00;4.63;;;3.42;;
24897;SDS011;12957;49.434;8.684;2023-05-01T13:41:26;2.88;;;2.65;;
24897;SDS011;12957;49.434;8.684;2023-05-01T13:43:53;4.63;;;2.60;;
24897;SDS011;12957;49.434;8.684;2023-05-01T13:46:19;5.32;;;3.03;;
24897;SDS011;12957;49.434;8.684;2023-05-01T13:48:46;3.40;;;3.10;;
24897;SDS011;12957;49.434;8.684;2023-05-01T13:51:12;5.07;;;2.67;;
24897;SDS011;12957;49.434;8.684;2023-05-01T13:53:38;2.83;;;2.55;;
24897;SDS011;12957;49.434;8.684;2023-05-01T13:56:05;5.35;;;3.10;;
24897;SDS011;12957;49.434;8.684;2023-05-01T13:58:32;5.20;;;3.30;;
24897;SDS011;12957;49.434;8.684;2023-05-01T14:00:58;3.42;;;3.03;;
24897;SDS011;12957;49.434;8.684;2023-05-01T14:03:23;3.25;;;2.65;;
24897;SDS011;12957;49.434;8.684;2023-05-01T14:05:49;4.43;;;2.80;;
24897;SDS011;12957;49.434;8.684;2023-05-01T14:08:14;3.90;;;2.58;;
24897;SDS011;12957;49.434;8.684;2023-05-01T14:10:40;3.38;;;2.80;;
24897;SDS011;12957;49.434;8.684;2023-05-01T14:13:05;3.20;;;3.00;;
24897;SDS011;12957;49.434;8.684;2023-05-01T14:15:34;3.13;;;2.90;;
24897;SDS011;12957;49.434;8.684;2023-05-01T14:18:06;3.33;;;3.03;;
24897;SDS011;12957;49.434;8.684;2023-05-01T14:20:31;3.63;;;2.75;;
24897;SDS011;12957;49.434;8.684;2023-05-01T14:22:57;5.78;;;3.40;;
24897;SDS011;12957;49.434;8.684;2023-05-01T14:27:50;4.55;;;2.85;;
24897;SDS011;12957;49.434;8.684;2023-05-01T14:30:18;3.03;;;2.45;;
24897;SDS011;12957;49.434;8.684;2023-05-01T14:33:02;3.83;;;3.08;;
24897;SDS011;12957;49.434;8.684;2023-05-01T14:35:30;5.63;;;2.92;;
24897;SDS011;12957;49.434;8.684;2023-05-01T14:37:56;3.15;;;2.72;;
24897;SDS011;12957;49.434;8.684;2023-05-01T14:40:29;3.60;;;2.80;;
24897;SDS011;12957;49.434;8.684;2023-05-01T14:42:56;2.65;;;2.45;;
24897;SDS011;12957;49.434;8.684;2023-05-01T14:45:21;3.45;;;3.15;;
24897;SDS011;12957;49.434;8.684;2023-05-01T14:47:47;2.65;;;2.50;;
24897;SDS011;12957;49.434;8.684;2023-05-01T14:50:20;6.47;;;2.53;;
24897;SDS011;12957;49.434;8.684;2023-05-01T14:52:51;2.97;;;2.75;;
24897;SDS011;12957;49.434;8.684;2023-05-01T14:55:17;2.78;;;2.58;;
24897;SDS011;12957;49.434;8.684;2023-05-01T14:57:47;2.60;;;2.50;;
24897;SDS011;12957;49.434;8.684;2023-05-01T15:00:13;2.88;;;2.67;;
24897;SDS011;12957;49.434;8.684;2023-05-01T15:02:39;3.17;;;2.60;;
24897;SDS011;12957;49.434;8.684;2023-05-01T15:05:05;6.88;;;2.97;;
24897;SDS011;12957;49.434;8.684;2023-05-01T15:07:30;2.63;;;2.42;;
24897;SDS011;12957;49.434;8.684;2023-05-01T15:09:56;2.88;;;2.33;;
24897;SDS011;12957;49.434;8.684;2023-05-01T15:12:21;7.57;;;2.90;;
24897;SDS011;12957;49.434;8.684;2023-05-01T15:14:47;2.95;;;2.35;;
24897;SDS011;12957;49.434;8.684;2023-05-01T15:17:12;3.72;;;2.80;;
24897;SDS011;12957;49.434;8.684;2023-05-01T15:19:38;2.83;;;2.50;;
24897;SDS011;12957;49.434;8.684;2023-05-01T15:22:03;5.18;;;2.97;;
24897;SDS011;12957;49.434;8.684;2023-05-01T15:24:29;3.75;;;2.38;;
24897;SDS011;12957;49.434;8.684;2023-05-01T15:26:55;4.18;;;2.60;;
24897;SDS011;12957;49.434;8.684;2023-05-01T15:29:20;2.38;;;2.28;;
24897;SDS011;12957;49.434;8.684;2023-05-01T15:31:46;2.17;;;2.08;;
24897;SDS011;12957;49.434;8.684;2023-05-01T15:34:12;4.25;;;2.53;;